Terminal Aerodrome Forecast
Issued by NWS

Home | Current Version | Previous Version | Graphics & Text | Print | Product List | Glossary On
Versions: 1 2 3 4 5 6 7 8 9 10 11 12 13 14 15 16 17
000
FTUS43 KICT 011738
TAFRSL
TAF
KRSL 011738Z 0118/0218 33006KT P6SM SCT120
     FM012300 05003KT P6SM BKN130
     FM020500 VRB04KT P6SM BKN100
     FM021400 15010KT P6SM BKN050=

USA.gov is the U.S. government's official web portal to all federal, state and local government web resources and services.